Time;durP1;ratioP1;P1;durP2;ratioP2;P2;SDS_P1;SDS_P2;PMS_P1;PMS_P2;Temp;Humidity;BMP_temperature;BMP_pressure;BME280_temperature;BME280_humidity;BME280_pressure;Samples;Min_cycle;Max_cycle;Signal;HPM_P1;HPM_P2
2022/12/11 00:01:37;;;;;;;14.20;9.77;;;22.80;43.10;;;;;;6049118;28;85126;-66
2022/12/11 00:04:37;;;;;;;12.40;8.88;;;22.80;43.10;;;;;;6049611;28;81436;-64
2022/12/11 00:07:38;;;;;;;14.32;10.20;;;22.80;43.20;;;;;;6045013;28;80080;-62
2022/12/11 00:10:38;;;;;;;14.32;9.82;;;22.80;43.00;;;;;;6052365;28;82993;-64
2022/12/11 00:13:39;;;;;;;11.45;8.48;;;22.80;42.80;;;;;;6046802;28;86004;-64
2022/12/11 00:16:39;;;;;;;13.02;9.07;;;22.80;43.00;;;;;;6050919;28;80693;-66
2022/12/11 00:19:40;;;;;;;11.75;8.93;;;22.80;43.00;;;;;;6049042;28;80258;-65
2022/12/11 00:22:40;;;;;;;12.68;8.52;;;22.80;43.10;;;;;;6036014;28;82324;-66
2022/12/11 00:25:42;;;;;;;11.30;7.90;;;22.80;43.00;;;;;;6043832;28;80366;-64
2022/12/11 00:28:43;;;;;;;9.85;7.43;;;22.80;42.90;;;;;;6035924;28;83894;-66
2022/12/11 00:31:43;;;;;;;10.55;8.40;;;22.80;42.90;;;;;;6045307;28;80847;-65
2022/12/11 00:34:44;;;;;;;10.73;8.18;;;22.80;42.90;;;;;;6031994;28;80268;-69
2022/12/11 00:37:44;;;;;;;11.02;8.05;;;22.80;43.00;;;;;;6024016;28;81201;-70
2022/12/11 00:40:45;;;;;;;10.73;7.80;;;22.80;42.80;;;;;;6036235;28;80899;-70
2022/12/11 00:43:45;;;;;;;12.02;7.53;;;22.80;42.90;;;;;;6043296;28;80309;-72
2022/12/11 00:46:46;;;;;;;11.07;7.90;;;22.80;42.90;;;;;;6031887;28;80974;-72
2022/12/11 00:49:46;;;;;;;11.35;8.05;;;22.80;42.70;;;;;;6040426;28;80784;-74
2022/12/11 00:52:47;;;;;;;11.52;7.80;;;22.80;42.80;;;;;;6049257;28;80358;-72
2022/12/11 00:55:47;;;;;;;10.15;7.68;;;22.80;42.60;;;;;;6055412;28;81067;-74
2022/12/11 00:58:48;;;;;;;10.68;7.70;;;22.80;42.40;;;;;;6044414;28;82324;-73
2022/12/11 01:01:48;;;;;;;10.18;6.97;;;22.80;42.80;;;;;;6046769;28;80463;-73
2022/12/11 01:04:49;;;;;;;11.45;7.57;;;22.80;42.60;;;;;;6043405;28;81407;-74
2022/12/11 01:07:49;;;;;;;10.48;7.55;;;22.80;42.60;;;;;;6044396;28;80696;-74
2022/12/11 01:10:50;;;;;;;10.48;6.85;;;22.80;42.40;;;;;;6050819;28;83097;-73
2022/12/11 01:13:50;;;;;;;9.88;7.00;;;22.80;42.40;;;;;;6047880;28;80986;-64
2022/12/11 01:16:51;;;;;;;8.23;6.97;;;22.80;42.30;;;;;;6042562;28;81295;-65
2022/12/11 01:19:51;;;;;;;12.85;7.68;;;22.80;42.40;;;;;;6051906;28;81161;-64
2022/12/11 01:22:52;;;;;;;9.45;7.10;;;22.80;42.10;;;;;;6032607;28;86639;-63
2022/12/11 01:25:53;;;;;;;9.55;6.78;;;22.80;42.10;;;;;;6047057;28;81042;-63
2022/12/11 01:28:53;;;;;;;9.00;7.10;;;22.80;42.10;;;;;;6030755;28;89156;-64
2022/12/11 01:31:54;;;;;;;8.68;6.72;;;22.80;42.10;;;;;;6031187;28;80866;-64
2022/12/11 01:34:54;;;;;;;10.73;7.13;;;22.80;42.10;;;;;;6039614;28;80266;-65
2022/12/11 01:37:55;;;;;;;9.00;7.00;;;22.80;42.20;;;;;;6043920;28;80174;-65
2022/12/11 01:40:55;;;;;;;9.05;6.63;;;22.80;42.10;;;;;;6051282;28;87585;-64
2022/12/11 01:43:56;;;;;;;9.80;7.20;;;22.80;42.20;;;;;;6031848;28;79964;-63
2022/12/11 01:46:57;;;;;;;8.20;6.40;;;22.80;42.10;;;;;;6033143;28;82906;-65
2022/12/11 01:49:57;;;;;;;9.05;6.88;;;22.80;42.00;;;;;;6046583;28;80388;-74
2022/12/11 01:52:58;;;;;;;9.50;6.65;;;22.80;42.00;;;;;;6040663;28;80587;-70
2022/12/11 01:55:59;;;;;;;10.95;7.40;;;22.80;42.20;;;;;;6034836;28;86128;-74
2022/12/11 01:58:59;;;;;;;10.23;6.75;;;22.80;42.30;;;;;;6043790;28;81184;-74
2022/12/11 02:02:00;;;;;;;10.68;7.38;;;22.80;42.20;;;;;;6042503;28;80915;-73
2022/12/11 02:05:00;;;;;;;8.90;6.57;;;22.80;42.30;;;;;;6032458;28;80715;-73
2022/12/11 02:08:01;;;;;;;9.68;6.60;;;22.80;42.20;;;;;;6029515;28;80358;-65
2022/12/11 02:11:01;;;;;;;9.40;6.50;;;22.70;41.90;;;;;;6032262;28;80783;-64
2022/12/11 02:14:02;;;;;;;11.23;7.55;;;22.70;41.80;;;;;;6044140;28;82488;-65
2022/12/11 02:17:02;;;;;;;8.05;6.10;;;22.70;41.90;;;;;;6042509;28;81124;-64
2022/12/11 02:20:04;;;;;;;9.13;6.90;;;22.70;41.80;;;;;;6036967;28;80116;-63
2022/12/11 02:23:04;;;;;;;9.52;6.75;;;22.70;41.80;;;;;;6047936;28;80436;-65
2022/12/11 02:26:05;;;;;;;9.45;6.85;;;22.70;41.80;;;;;;6053523;28;80441;-64
2022/12/11 02:29:05;;;;;;;10.50;7.10;;;22.70;41.90;;;;;;6035757;28;79974;-63
2022/12/11 02:32:06;;;;;;;8.60;6.38;;;22.70;41.70;;;;;;6029920;28;85060;-62
2022/12/11 02:35:06;;;;;;;9.77;6.45;;;22.70;41.70;;;;;;6035562;28;80492;-64
2022/12/11 02:38:07;;;;;;;7.90;6.03;;;22.70;41.50;;;;;;6036733;28;81150;-64
2022/12/11 02:41:07;;;;;;;8.77;6.13;;;22.70;41.50;;;;;;6042207;28;80437;-63
2022/12/11 02:44:08;;;;;;;8.10;6.57;;;22.70;41.30;;;;;;6039050;28;80540;-64
2022/12/11 02:47:08;;;;;;;9.27;6.40;;;22.70;41.20;;;;;;6053510;28;80987;-63
2022/12/11 02:50:09;;;;;;;8.30;6.35;;;22.70;41.20;;;;;;6042440;28;81028;-63
2022/12/11 02:53:09;;;;;;;8.05;5.90;;;22.70;41.20;;;;;;6042483;28;83664;-63
2022/12/11 02:56:10;;;;;;;9.68;6.93;;;22.70;41.30;;;;;;6042938;28;80794;-61
2022/12/11 02:59:10;;;;;;;9.40;6.50;;;22.70;41.20;;;;;;6055041;28;88139;-62
2022/12/11 03:02:11;;;;;;;9.25;6.38;;;22.70;41.30;;;;;;6056942;28;80426;-73
2022/12/11 03:05:12;;;;;;;7.78;5.88;;;22.70;41.20;;;;;;6050603;28;80563;-72
2022/12/11 03:08:16;;;;;;;7.60;5.90;;;22.70;41.60;;;;;;6061136;28;81061;-73
2022/12/11 03:11:16;;;;;;;8.05;5.80;;;22.70;41.50;;;;;;6056293;28;85468;-73
2022/12/11 03:14:17;;;;;;;8.63;6.75;;;22.70;41.40;;;;;;6059445;28;81634;-72
2022/12/11 03:17:17;;;;;;;8.15;6.10;;;22.70;41.40;;;;;;6057157;28;85058;-73
2022/12/11 03:20:18;;;;;;;8.50;5.97;;;22.70;41.40;;;;;;6060733;28;80361;-62
2022/12/11 03:23:19;;;;;;;8.32;6.55;;;22.70;41.40;;;;;;6067804;28;83642;-66
2022/12/11 03:26:20;;;;;;;8.45;5.90;;;22.70;41.40;;;;;;6056346;28;83504;-66
2022/12/11 03:29:21;;;;;;;8.48;6.10;;;22.70;41.30;;;;;;6039891;28;83385;-65
2022/12/11 03:32:22;;;;;;;8.30;6.30;;;22.70;41.30;;;;;;6036269;28;80544;-64
2022/12/11 03:35:22;;;;;;;7.63;6.05;;;22.70;41.30;;;;;;6059668;28;82345;-64
2022/12/11 03:38:23;;;;;;;7.55;6.05;;;22.70;41.20;;;;;;6049279;28;86273;-63
2022/12/11 03:41:23;;;;;;;7.88;5.70;;;22.70;41.20;;;;;;6042031;28;81112;-63
2022/12/11 03:44:24;;;;;;;7.53;5.50;;;22.70;41.20;;;;;;6047219;28;85848;-63
2022/12/11 03:47:24;;;;;;;6.85;5.25;;;22.70;41.10;;;;;;6046174;28;80457;-64
2022/12/11 03:50:25;;;;;;;7.18;5.47;;;22.70;41.20;;;;;;6033088;28;81900;-64
2022/12/11 03:53:25;;;;;;;6.70;5.45;;;22.70;41.50;;;;;;6047465;28;80675;-64
2022/12/11 03:56:26;;;;;;;8.57;5.75;;;22.70;41.70;;;;;;6054756;28;80811;-63
2022/12/11 03:59:26;;;;;;;7.07;5.88;;;22.70;41.80;;;;;;6048923;28;80200;-63
2022/12/11 04:02:27;;;;;;;7.70;5.30;;;22.70;41.70;;;;;;6051900;28;80559;-63
2022/12/11 04:05:27;;;;;;;5.75;4.80;;;22.70;41.50;;;;;;6048018;28;85949;-63
2022/12/11 04:08:28;;;;;;;5.57;4.63;;;22.70;41.50;;;;;;6068425;28;81452;-63
2022/12/11 04:11:34;;;;;;;7.97;5.13;;;22.70;41.50;;;;;;6052714;28;82536;-63
2022/12/11 04:24:32;;;;;;;7.43;5.40;;;22.70;40.80;;;;;;6044401;28;81076;-63
2022/12/11 04:27:48;;;;;;;7.07;5.43;;;22.80;40.30;;;;;;6049751;28;80074;-66
2022/12/11 04:30:49;;;;;;;8.38;5.60;;;22.80;39.90;;;;;;6055560;28;81397;-63
2022/12/11 04:33:49;;;;;;;8.48;5.80;;;22.90;39.90;;;;;;6050230;28;81035;-74
2022/12/11 04:36:50;;;;;;;6.88;5.10;;;22.90;39.80;;;;;;6049335;28;80862;-75
2022/12/11 04:39:50;;;;;;;7.22;5.05;;;22.90;39.70;;;;;;6045080;28;80976;-74
2022/12/11 04:42:51;;;;;;;8.30;4.82;;;23.00;39.60;;;;;;6035591;28;81364;-73
2022/12/11 04:45:51;;;;;;;6.50;5.07;;;23.10;39.70;;;;;;6042663;28;81054;-73
2022/12/11 04:48:52;;;;;;;7.78;4.85;;;23.10;39.50;;;;;;6037754;28;80930;-72
2022/12/11 04:51:52;;;;;;;5.95;4.28;;;23.10;39.50;;;;;;6041913;28;80871;-63
2022/12/11 04:54:53;;;;;;;7.00;5.13;;;23.10;39.40;;;;;;6043421;28;80862;-64
2022/12/11 04:57:53;;;;;;;5.28;4.57;;;23.20;39.50;;;;;;6035273;28;80052;-62
2022/12/11 05:00:54;;;;;;;6.30;4.75;;;23.20;39.50;;;;;;6042633;28;80173;-61
2022/12/11 05:03:54;;;;;;;5.63;4.75;;;23.20;39.60;;;;;;6044396;28;80950;-66
2022/12/11 05:06:55;;;;;;;6.20;4.80;;;23.20;39.60;;;;;;6047597;28;85806;-66
2022/12/11 05:09:55;;;;;;;5.22;4.32;;;23.30;39.80;;;;;;6033436;28;80759;-67
2022/12/11 05:12:56;;;;;;;5.00;4.20;;;23.30;39.70;;;;;;6040858;28;80877;-66
2022/12/11 05:15:56;;;;;;;5.90;4.18;;;23.30;39.60;;;;;;6049951;28;80569;-65
2022/12/11 05:18:57;;;;;;;5.72;4.63;;;23.40;39.70;;;;;;6031652;28;80990;-64
2022/12/11 05:21:57;;;;;;;6.50;4.53;;;23.40;39.60;;;;;;6054400;28;81637;-63
2022/12/11 05:24:58;;;;;;;5.53;4.13;;;23.40;39.70;;;;;;6033999;28;80438;-63
2022/12/11 05:27:58;;;;;;;6.10;4.60;;;23.40;39.80;;;;;;6039159;28;80891;-67
2022/12/11 05:30:59;;;;;;;6.95;4.60;;;23.40;39.80;;;;;;6040533;28;81756;-65
2022/12/11 05:33:59;;;;;;;5.00;4.32;;;23.50;39.80;;;;;;6033191;28;80882;-70
2022/12/11 05:37:00;;;;;;;7.63;4.10;;;23.50;39.80;;;;;;6045202;28;80611;-70
2022/12/11 05:40:00;;;;;;;5.25;4.50;;;23.50;39.80;;;;;;6053879;28;83323;-73
2022/12/11 05:43:01;;;;;;;4.63;3.60;;;23.50;39.80;;;;;;6046705;28;80749;-68
2022/12/11 05:46:01;;;;;;;5.70;4.00;;;23.50;39.80;;;;;;6054845;28;84681;-70
2022/12/11 05:49:02;;;;;;;5.22;4.00;;;23.50;39.80;;;;;;6054350;28;80612;-68
2022/12/11 05:52:02;;;;;;;4.60;3.60;;;23.50;39.80;;;;;;6055169;28;81308;-66
2022/12/11 05:55:03;;;;;;;4.68;3.95;;;23.50;39.90;;;;;;6039906;28;86496;-67
2022/12/11 05:58:04;;;;;;;5.32;4.15;;;23.50;39.50;;;;;;6046005;28;80592;-67
2022/12/11 06:01:04;;;;;;;3.97;3.38;;;23.50;39.70;;;;;;6040638;28;82922;-68
2022/12/11 06:04:05;;;;;;;8.73;3.95;;;23.40;39.80;;;;;;6034973;28;80862;-67
2022/12/11 06:07:05;;;;;;;10.63;3.75;;;23.40;40.30;;;;;;6045761;28;83628;-66
2022/12/11 06:10:06;;;;;;;4.82;3.55;;;23.50;40.50;;;;;;6052597;28;80683;-72
2022/12/11 06:13:06;;;;;;;5.15;4.38;;;23.40;40.20;;;;;;6055775;28;82230;-66
2022/12/11 06:16:07;;;;;;;4.22;3.80;;;23.40;40.40;;;;;;6056873;28;83614;-64
2022/12/11 06:19:07;;;;;;;4.88;3.83;;;23.40;40.40;;;;;;6020408;28;81148;-62
2022/12/11 06:22:08;;;;;;;7.70;3.75;;;23.30;40.00;;;;;;6030661;28;80969;-62
2022/12/11 06:25:08;;;;;;;4.32;3.63;;;23.30;40.30;;;;;;6035256;28;81365;-67
2022/12/11 06:28:08;;;;;;;5.10;3.97;;;23.30;40.10;;;;;;6037588;28;86165;-63
2022/12/11 06:31:09;;;;;;;5.97;4.30;;;23.30;41.50;;;;;;6051541;28;82114;-63
2022/12/11 06:34:10;;;;;;;6.68;4.05;;;23.30;41.50;;;;;;6050380;28;81632;-64
2022/12/11 06:37:10;;;;;;;9.68;4.03;;;23.30;41.60;;;;;;6048071;28;81106;-63
2022/12/11 06:40:14;;;;;;;6.00;3.60;;;23.20;41.70;;;;;;6055278;28;80686;-62
2022/12/11 06:43:15;;;;;;;5.85;4.18;;;23.20;42.50;;;;;;6052550;28;80522;-61
2022/12/11 06:46:15;;;;;;;8.30;4.15;;;23.10;42.30;;;;;;6054119;28;80656;-62
2022/12/11 06:49:16;;;;;;;7.82;4.35;;;23.10;42.60;;;;;;6053200;28;80602;-64
2022/12/11 06:52:16;;;;;;;6.68;4.63;;;23.10;43.10;;;;;;6053104;28;80297;-62
2022/12/11 06:55:17;;;;;;;5.82;4.25;;;23.10;43.30;;;;;;6069161;28;81852;-63
2022/12/11 06:58:17;;;;;;;7.55;4.03;;;23.10;43.80;;;;;;6077082;28;80737;-63
2022/12/11 07:01:18;;;;;;;6.50;4.25;;;23.00;44.30;;;;;;6078171;28;80330;-64
2022/12/11 07:04:18;;;;;;;5.97;4.35;;;23.00;45.60;;;;;;6073067;28;82886;-62
2022/12/11 07:07:19;;;;;;;4.93;3.92;;;23.00;45.70;;;;;;6071403;28;80552;-60
2022/12/11 07:10:20;;;;;;;5.50;3.70;;;23.00;45.80;;;;;;6077595;28;84230;-62
2022/12/11 07:13:20;;;;;;;5.45;4.25;;;23.00;45.70;;;;;;6075793;28;80529;-62
2022/12/11 07:16:21;;;;;;;5.72;4.22;;;23.00;46.50;;;;;;6059348;28;80480;-64
2022/12/11 07:19:21;;;;;;;8.57;4.28;;;23.00;46.40;;;;;;6056771;28;81070;-64
2022/12/11 07:22:22;;;;;;;7.65;4.00;;;23.00;46.30;;;;;;6053726;28;81726;-67
2022/12/11 07:25:22;;;;;;;7.50;4.25;;;23.00;46.80;;;;;;6067649;28;82976;-62
2022/12/11 07:28:22;;;;;;;5.03;3.72;;;23.00;47.20;;;;;;6061825;28;84921;-63
2022/12/11 07:31:23;;;;;;;7.25;4.22;;;23.10;47.30;;;;;;6076139;28;85585;-70
2022/12/11 07:34:24;;;;;;;6.03;4.13;;;23.00;47.10;;;;;;6074888;28;82158;-68
2022/12/11 07:37:24;;;;;;;5.82;4.10;;;23.00;47.70;;;;;;6063845;28;80299;-70
2022/12/11 07:40:25;;;;;;;6.40;4.65;;;23.00;47.70;;;;;;6072895;28;80771;-65
2022/12/11 07:43:25;;;;;;;5.35;4.15;;;23.10;47.70;;;;;;6079032;28;80561;-65
2022/12/11 07:46:26;;;;;;;6.38;4.28;;;23.10;47.40;;;;;;6067420;28;80770;-64
2022/12/11 07:49:27;;;;;;;5.90;4.30;;;23.10;47.50;;;;;;6076833;28;88042;-65
2022/12/11 07:52:27;;;;;;;8.07;5.10;;;23.10;47.20;;;;;;6077379;28;80934;-64
2022/12/11 07:55:28;;;;;;;6.72;4.55;;;23.10;46.80;;;;;;6073601;28;86481;-74
2022/12/11 07:58:28;;;;;;;5.93;4.53;;;23.10;46.10;;;;;;6074542;28;80455;-60
2022/12/11 08:01:29;;;;;;;7.90;4.85;;;23.10;45.90;;;;;;6078336;28;81342;-59
2022/12/11 08:04:29;;;;;;;5.93;4.40;;;23.20;46.10;;;;;;6079779;28;80625;-61
2022/12/11 08:07:30;;;;;;;5.82;4.70;;;23.20;46.10;;;;;;6078962;28;87853;-62
2022/12/11 08:10:30;;;;;;;6.40;4.70;;;23.20;45.80;;;;;;6074479;28;87812;-60
2022/12/11 08:13:31;;;;;;;5.93;4.68;;;23.20;46.00;;;;;;6076348;28;80512;-61
2022/12/11 08:16:31;;;;;;;6.72;4.47;;;23.20;46.00;;;;;;6076429;28;80453;-61
2022/12/11 08:19:32;;;;;;;6.88;5.45;;;23.20;45.80;;;;;;6078187;28;82421;-59
2022/12/11 08:22:32;;;;;;;21.80;5.47;;;23.20;45.90;;;;;;6077616;28;80524;-62
2022/12/11 08:25:33;;;;;;;6.65;4.75;;;23.20;45.60;;;;;;6078959;28;81268;-61
2022/12/11 08:28:33;;;;;;;7.15;4.43;;;23.20;45.60;;;;;;6064074;28;80946;-68
2022/12/11 08:31:34;;;;;;;7.53;5.25;;;23.20;45.40;;;;;;6052721;28;80691;-62
2022/12/11 08:34:34;;;;;;;9.73;5.50;;;23.30;45.60;;;;;;6065026;28;82902;-67
2022/12/11 08:37:35;;;;;;;8.32;5.18;;;23.30;45.80;;;;;;6066398;28;81004;-66
2022/12/11 08:40:35;;;;;;;17.83;5.03;;;23.30;45.70;;;;;;6070376;28;79956;-61
2022/12/11 08:43:36;;;;;;;9.57;5.18;;;23.30;45.40;;;;;;6072137;28;87274;-61
2022/12/11 08:46:37;;;;;;;10.45;5.03;;;23.40;45.50;;;;;;6076365;28;81153;-63
2022/12/11 08:49:37;;;;;;;10.00;5.43;;;23.40;45.10;;;;;;6077403;28;87524;-63
2022/12/11 08:52:38;;;;;;;10.85;5.07;;;23.40;45.20;;;;;;6063005;28;82792;-65
2022/12/11 08:55:38;;;;;;;10.57;4.90;;;23.40;45.00;;;;;;6074313;28;82136;-64
2022/12/11 08:58:39;;;;;;;12.57;4.88;;;23.40;44.70;;;;;;6077104;28;85001;-69
2022/12/11 09:01:40;;;;;;;9.73;4.60;;;23.40;44.90;;;;;;6075096;28;81760;-69
2022/12/11 09:04:41;;;;;;;9.10;5.28;;;23.40;45.20;;;;;;6067838;28;80515;-70
2022/12/11 09:07:41;;;;;;;12.00;5.43;;;23.40;45.00;;;;;;6066901;28;80674;-70
2022/12/11 09:10:42;;;;;;;8.75;5.00;;;23.30;44.70;;;;;;6069354;28;80493;-59
2022/12/11 09:13:42;;;;;;;8.85;5.75;;;23.30;44.70;;;;;;6055209;28;82990;-54
2022/12/11 09:16:43;;;;;;;10.50;5.95;;;23.30;44.30;;;;;;6051637;28;80597;-58
2022/12/11 09:19:44;;;;;;;8.75;5.38;;;23.20;44.00;;;;;;6050929;28;81309;-57
2022/12/11 09:22:44;;;;;;;13.07;5.55;;;23.20;43.60;;;;;;6054280;28;80609;-57
2022/12/11 09:25:45;;;;;;;8.55;5.18;;;23.20;43.60;;;;;;6048623;28;83306;-58
2022/12/11 09:28:45;;;;;;;8.02;5.13;;;23.20;43.40;;;;;;6054731;28;80642;-70
2022/12/11 09:31:47;;;;;;;10.32;5.13;;;23.10;42.80;;;;;;6053761;28;80844;-69
2022/12/11 09:34:48;;;;;;;8.23;5.35;;;23.10;43.00;;;;;;6060816;28;80498;-70
2022/12/11 09:37:48;;;;;;;8.60;5.93;;;23.10;43.10;;;;;;6057192;28;80995;-69
2022/12/11 09:40:49;;;;;;;8.35;5.80;;;23.00;42.40;;;;;;6079093;28;80301;-69
2022/12/11 09:43:49;;;;;;;8.73;6.28;;;23.10;42.40;;;;;;6077048;28;84468;-68
2022/12/11 09:46:50;;;;;;;8.18;6.07;;;23.00;42.30;;;;;;6082848;28;81025;-67
2022/12/11 09:49:50;;;;;;;7.13;6.13;;;23.00;42.50;;;;;;6069087;28;80601;-66
2022/12/11 09:52:51;;;;;;;12.32;5.53;;;23.00;42.40;;;;;;6062395;28;80950;-68
2022/12/11 09:55:51;;;;;;;11.13;5.55;;;23.00;42.50;;;;;;6057795;28;81087;-69
2022/12/11 09:58:52;;;;;;;7.28;5.35;;;22.90;42.40;;;;;;6081208;28;81523;-69
2022/12/11 10:01:52;;;;;;;11.55;5.18;;;22.90;42.80;;;;;;6059825;28;80489;-65
2022/12/11 10:04:53;;;;;;;9.50;5.50;;;22.90;42.60;;;;;;6054242;28;82881;-54
2022/12/11 10:07:53;;;;;;;8.77;5.03;;;22.90;42.80;;;;;;6052797;28;80489;-56
2022/12/11 10:10:54;;;;;;;6.65;5.28;;;22.90;42.50;;;;;;6059268;28;80804;-55
2022/12/11 10:13:54;;;;;;;9.02;4.88;;;22.90;42.60;;;;;;6057336;28;80499;-57
2022/12/11 10:16:55;;;;;;;6.25;4.80;;;22.90;42.50;;;;;;6061174;28;80677;-59
2022/12/11 10:19:56;;;;;;;8.77;4.57;;;22.90;42.60;;;;;;6053029;28;83709;-59
2022/12/11 10:22:56;;;;;;;7.43;4.63;;;22.90;42.90;;;;;;6071927;28;84601;-59
2022/12/11 10:25:57;;;;;;;6.57;4.63;;;22.80;42.80;;;;;;6058324;28;84844;-58
2022/12/11 10:28:57;;;;;;;10.02;4.38;;;22.80;42.70;;;;;;6066006;28;80984;-60
2022/12/11 10:31:58;;;;;;;6.38;4.20;;;22.80;43.00;;;;;;6075205;28;80635;-60
2022/12/11 10:34:58;;;;;;;6.20;4.32;;;22.80;42.90;;;;;;6062331;28;84714;-61
2022/12/11 10:37:59;;;;;;;6.15;4.40;;;22.80;42.80;;;;;;6060244;28;84864;-59
2022/12/11 10:40:59;;;;;;;6.55;5.10;;;22.80;42.90;;;;;;6056621;28;80882;-60
2022/12/11 10:44:00;;;;;;;7.63;4.50;;;22.80;42.70;;;;;;6063184;28;80470;-59
2022/12/11 10:47:01;;;;;;;6.38;4.22;;;22.80;42.40;;;;;;6060519;28;84259;-60
2022/12/11 10:50:02;;;;;;;7.78;4.82;;;22.80;42.80;;;;;;6062001;28;80669;-60
2022/12/11 10:53:02;;;;;;;7.18;5.03;;;22.80;42.60;;;;;;6059627;28;80818;-59
2022/12/11 10:56:03;;;;;;;5.38;4.57;;;22.70;42.80;;;;;;6060730;28;81155;-60
2022/12/11 10:59:03;;;;;;;5.80;4.38;;;22.70;42.70;;;;;;6058327;28;85394;-58
2022/12/11 11:02:04;;;;;;;6.20;4.38;;;22.70;43.10;;;;;;6054237;28;81942;-64
2022/12/11 11:05:04;;;;;;;6.05;4.43;;;22.70;42.80;;;;;;6058284;28;85472;-67
2022/12/11 11:08:05;;;;;;;5.72;4.32;;;22.70;42.80;;;;;;6073056;28;80797;-70
2022/12/11 11:11:07;;;;;;;7.28;4.80;;;22.70;42.80;;;;;;6065983;28;81017;-70
2022/12/11 11:14:08;;;;;;;6.75;5.22;;;22.70;42.90;;;;;;6055443;28;84748;-69
2022/12/11 11:17:08;;;;;;;6.13;4.57;;;22.70;43.20;;;;;;6070300;28;80084;-71
2022/12/11 11:20:09;;;;;;;6.68;4.55;;;22.80;43.90;;;;;;6061350;28;85618;-59
2022/12/11 11:23:09;;;;;;;7.78;5.65;;;22.80;44.40;;;;;;6067606;28;81336;-58
2022/12/11 11:26:10;;;;;;;8.38;5.53;;;22.80;44.50;;;;;;6068768;28;81366;-59
2022/12/11 11:29:10;;;;;;;7.30;5.45;;;22.80;44.60;;;;;;6068266;28;80551;-61
2022/12/11 11:32:11;;;;;;;7.50;5.40;;;22.90;44.60;;;;;;6072868;28;80400;-59
2022/12/11 11:35:11;;;;;;;6.45;5.28;;;22.90;44.60;;;;;;6062414;28;81448;-59
2022/12/11 11:38:13;;;;;;;6.28;5.15;;;22.90;44.40;;;;;;6066656;28;81443;-70
2022/12/11 11:41:14;;;;;;;7.47;5.15;;;22.90;44.90;;;;;;6069875;28;85301;-70
2022/12/11 11:44:15;;;;;;;8.07;5.38;;;22.90;44.70;;;;;;6065811;28;85336;-70
2022/12/11 11:47:15;;;;;;;10.65;6.25;;;22.90;44.30;;;;;;6079274;28;82119;-71
2022/12/11 11:50:16;;;;;;;10.18;5.97;;;22.90;44.30;;;;;;6068656;28;82848;-73
2022/12/11 11:53:17;;;;;;;8.55;6.07;;;22.90;44.30;;;;;;6062958;28;81256;-72
2022/12/11 11:56:17;;;;;;;7.70;5.65;;;22.90;44.30;;;;;;6053292;28;80389;-67
2022/12/11 11:59:18;;;;;;;8.98;5.45;;;22.90;44.30;;;;;;6049602;28;82325;-71
2022/12/11 12:02:18;;;;;;;8.15;6.00;;;22.90;44.00;;;;;;6058271;28;80983;-69
2022/12/11 12:05:19;;;;;;;8.57;5.47;;;22.90;44.00;;;;;;6067276;28;80851;-68
2022/12/11 12:08:20;;;;;;;8.82;6.35;;;22.90;44.00;;;;;;6073551;28;80089;-68
2022/12/11 12:11:20;;;;;;;8.52;6.00;;;22.90;43.70;;;;;;6071784;28;80578;-69
2022/12/11 12:14:21;;;;;;;11.15;6.03;;;22.90;44.20;;;;;;6077411;28;84744;-59
2022/12/11 12:17:21;;;;;;;6.93;5.82;;;22.80;43.90;;;;;;6067536;28;81730;-58
2022/12/11 12:20:22;;;;;;;7.93;6.13;;;22.80;43.70;;;;;;6080522;28;80581;-58
2022/12/11 12:23:22;;;;;;;6.50;5.28;;;22.80;43.50;;;;;;6076703;28;81794;-58
2022/12/11 12:26:23;;;;;;;8.93;5.40;;;22.80;43.10;;;;;;6073285;28;80826;-59
2022/12/11 12:29:23;;;;;;;8.80;5.90;;;22.80;42.90;;;;;;6058063;28;81482;-59
2022/12/11 12:32:24;;;;;;;8.93;5.50;;;22.80;42.60;;;;;;6053530;28;83602;-59
2022/12/11 12:35:25;;;;;;;6.40;5.43;;;22.80;42.70;;;;;;6056806;28;84197;-59
2022/12/11 12:38:25;;;;;;;9.00;5.80;;;22.70;42.30;;;;;;6058358;28;80591;-60
2022/12/11 12:41:26;;;;;;;8.73;5.95;;;22.70;42.40;;;;;;6057552;28;81618;-59
2022/12/11 12:44:26;;;;;;;8.05;5.88;;;22.70;42.20;;;;;;6067513;28;80751;-59
2022/12/11 12:47:27;;;;;;;8.20;5.85;;;22.70;41.80;;;;;;6076501;28;81410;-61
2022/12/11 12:50:27;;;;;;;6.22;4.82;;;22.70;41.70;;;;;;6072093;28;85561;-59
2022/12/11 12:53:28;;;;;;;9.07;6.10;;;22.80;41.40;;;;;;6079931;28;81359;-58
2022/12/11 12:56:28;;;;;;;8.48;6.38;;;22.80;41.20;;;;;;6076207;28;81847;-58
2022/12/11 12:59:29;;;;;;;7.22;5.80;;;22.80;40.90;;;;;;6073057;28;81513;-55
2022/12/11 13:02:29;;;;;;;10.18;5.85;;;22.80;41.20;;;;;;6072855;28;80950;-58
2022/12/11 13:05:30;;;;;;;8.05;5.82;;;22.80;41.60;;;;;;6069363;28;80643;-59
2022/12/11 13:08:31;;;;;;;9.38;5.30;;;22.80;42.40;;;;;;6066800;28;81148;-62
2022/12/11 13:11:32;;;;;;;5.95;4.63;;;22.80;42.40;;;;;;6073259;28;80985;-61
2022/12/11 13:14:32;;;;;;;9.30;5.95;;;22.80;42.50;;;;;;6061525;28;80900;-61
2022/12/11 13:17:33;;;;;;;8.52;5.43;;;22.80;42.60;;;;;;6061090;28;82054;-60
2022/12/11 13:20:33;;;;;;;8.25;5.53;;;22.90;42.60;;;;;;6068580;28;80738;-61
2022/12/11 13:23:34;;;;;;;6.75;5.57;;;22.90;42.70;;;;;;6068039;28;80735;-59
2022/12/11 13:26:35;;;;;;;7.13;5.65;;;22.90;43.00;;;;;;6067523;28;85893;-58
2022/12/11 13:29:35;;;;;;;8.70;6.18;;;22.90;42.60;;;;;;6066540;28;86523;-59
2022/12/11 13:32:36;;;;;;;8.25;5.70;;;22.90;42.70;;;;;;6059520;28;86463;-59
2022/12/11 13:35:37;;;;;;;13.65;6.57;;;22.90;42.60;;;;;;6057179;28;81638;-57
2022/12/11 13:38:37;;;;;;;9.65;6.22;;;22.90;42.70;;;;;;6055042;28;80558;-58
2022/12/11 13:41:38;;;;;;;8.57;5.93;;;22.90;42.60;;;;;;6054086;28;81238;-60
2022/12/11 13:44:38;;;;;;;12.10;6.07;;;22.90;42.70;;;;;;6065008;28;81063;-59
2022/12/11 13:47:39;;;;;;;9.05;6.05;;;23.00;42.90;;;;;;6076284;28;81909;-58
2022/12/11 13:50:39;;;;;;;8.98;6.45;;;23.00;42.90;;;;;;6055539;28;80794;-58
2022/12/11 13:53:40;;;;;;;8.48;6.05;;;23.00;42.70;;;;;;6050639;28;80861;-59
2022/12/11 13:56:40;;;;;;;10.73;6.50;;;23.00;42.50;;;;;;6055642;28;84231;-57
2022/12/11 13:59:41;;;;;;;7.65;5.93;;;23.00;42.60;;;;;;6058276;28;80428;-59
2022/12/11 14:02:41;;;;;;;8.25;5.70;;;23.00;42.50;;;;;;6057679;28;82228;-59
2022/12/11 14:05:42;;;;;;;12.93;7.03;;;23.00;42.70;;;;;;6066711;28;80053;-60
2022/12/11 14:08:42;;;;;;;12.02;6.05;;;23.00;42.00;;;;;;6051179;28;84933;-60
2022/12/11 14:11:43;;;;;;;9.45;6.90;;;23.10;41.70;;;;;;6071304;28;80820;-61
2022/12/11 14:14:43;;;;;;;10.32;6.78;;;23.10;41.50;;;;;;6063988;28;80538;-59
2022/12/11 14:17:44;;;;;;;8.85;6.90;;;23.10;41.00;;;;;;6066239;28;80655;-61
2022/12/11 14:20:44;;;;;;;8.75;6.85;;;23.10;40.70;;;;;;6051814;28;82296;-58
2022/12/11 14:23:45;;;;;;;8.60;6.40;;;23.10;40.70;;;;;;6064677;28;80633;-53
2022/12/11 14:26:46;;;;;;;9.63;6.70;;;23.00;40.40;;;;;;6067520;28;81226;-66
2022/12/11 14:29:46;;;;;;;9.10;6.60;;;23.00;40.40;;;;;;6074214;28;80715;-59
2022/12/11 14:32:47;;;;;;;10.50;6.53;;;23.10;41.00;;;;;;6070156;28;80588;-59
2022/12/11 14:35:47;;;;;;;8.35;6.18;;;23.00;40.50;;;;;;6071843;28;80620;-56
2022/12/11 14:38:48;;;;;;;11.18;6.18;;;23.00;40.60;;;;;;6056180;28;82952;-57
2022/12/11 14:41:48;;;;;;;11.48;7.35;;;23.00;40.30;;;;;;6068408;28;80403;-69
2022/12/11 14:44:49;;;;;;;8.82;6.63;;;23.00;40.40;;;;;;6089990;28;82937;-71
2022/12/11 14:47:50;;;;;;;9.77;6.88;;;23.00;41.20;;;;;;6057769;28;81588;-71
2022/12/11 14:50:50;;;;;;;11.77;7.82;;;23.00;41.60;;;;;;6064517;28;82705;-71
2022/12/11 14:53:51;;;;;;;9.88;7.43;;;22.90;42.20;;;;;;6060861;28;88120;-72
2022/12/11 14:56:51;;;;;;;9.65;7.20;;;22.90;42.40;;;;;;6065794;28;82440;-68
2022/12/11 14:59:52;;;;;;;10.05;6.93;;;22.90;43.00;;;;;;6065094;28;80721;-70
2022/12/11 15:02:52;;;;;;;10.73;6.97;;;22.90;43.00;;;;;;6077448;28;80525;-68
2022/12/11 15:05:54;;;;;;;12.70;6.82;;;22.80;43.40;;;;;;6075192;28;81514;-68
2022/12/11 15:08:55;;;;;;;9.02;6.80;;;22.90;43.80;;;;;;6078770;28;84524;-69
2022/12/11 15:11:55;;;;;;;12.00;7.03;;;22.80;43.60;;;;;;6082449;28;80548;-67
2022/12/11 15:14:56;;;;;;;8.55;6.25;;;22.90;43.50;;;;;;6071278;28;80878;-67
2022/12/11 15:17:57;;;;;;;15.07;6.90;;;22.90;43.50;;;;;;6067558;28;80691;-70
2022/12/11 15:20:57;;;;;;;15.65;7.57;;;23.00;43.30;;;;;;6074428;28;83191;-72
2022/12/11 15:23:58;;;;;;;14.23;8.23;;;22.90;43.50;;;;;;6060730;28;80697;-72
2022/12/11 15:26:59;;;;;;;14.10;7.03;;;22.90;43.60;;;;;;6062360;28;85303;-70
2022/12/11 15:30:00;;;;;;;14.70;8.15;;;22.90;43.50;;;;;;6068291;28;80495;-69
2022/12/11 15:33:01;;;;;;;14.15;7.95;;;22.90;43.20;;;;;;6061203;28;87315;-74
2022/12/11 15:36:01;;;;;;;10.40;7.45;;;22.80;43.60;;;;;;6064384;28;81187;-67
2022/12/11 15:39:02;;;;;;;13.82;7.47;;;22.80;43.20;;;;;;6057458;28;81845;-61
2022/12/11 15:42:03;;;;;;;15.80;7.63;;;22.80;42.90;;;;;;6061037;28;81877;-62
2022/12/11 15:45:05;;;;;;;11.85;7.50;;;22.80;42.80;;;;;;6073705;28;82794;-62
2022/12/11 15:48:05;;;;;;;11.95;7.65;;;22.80;43.10;;;;;;6067445;28;82023;-62